sensor_id;sensor_type;location;lat;lon;timestamp;pressure;altitude;pressure_sealevel;temperature;humidity
41250;BME280;26984;59.928;30.306;2023-04-07T00:02:00;102830.63;;;4.63;61.69
41250;BME280;26984;59.928;30.306;2023-04-07T00:04:29;102828.31;;;4.59;62.17
41250;BME280;26984;59.928;30.306;2023-04-07T00:06:56;102829.06;;;4.49;62.72
41250;BME280;26984;59.928;30.306;2023-04-07T00:09:24;102823.81;;;4.48;62.70
41250;BME280;26984;59.928;30.306;2023-04-07T00:11:51;102825.19;;;4.42;62.75
41250;BME280;26984;59.928;30.306;2023-04-07T00:14:18;102824.59;;;4.39;63.44
41250;BME280;26984;59.928;30.306;2023-04-07T00:16:46;102821.91;;;4.39;63.47
41250;BME280;26984;59.928;30.306;2023-04-07T00:19:13;102820.94;;;4.40;63.52
41250;BME280;26984;59.928;30.306;2023-04-07T00:21:42;102824.22;;;4.43;62.86
41250;BME280;26984;59.928;30.306;2023-04-07T00:24:10;102819.00;;;4.42;62.96
41250;BME280;26984;59.928;30.306;2023-04-07T00:26:37;102821.66;;;4.42;62.60
41250;BME280;26984;59.928;30.306;2023-04-07T00:29:05;102814.63;;;4.41;63.48
41250;BME280;26984;59.928;30.306;2023-04-07T00:31:33;102818.16;;;4.41;64.16
41250;BME280;26984;59.928;30.306;2023-04-07T00:34:00;102820.44;;;4.46;64.10
41250;BME280;26984;59.928;30.306;2023-04-07T00:36:27;102815.97;;;4.46;63.44
41250;BME280;26984;59.928;30.306;2023-04-07T00:38:57;102817.66;;;4.47;63.55
41250;BME280;26984;59.928;30.306;2023-04-07T00:41:25;102813.03;;;4.49;64.02
41250;BME280;26984;59.928;30.306;2023-04-07T00:43:52;102815.72;;;4.49;63.43
41250;BME280;26984;59.928;30.306;2023-04-07T00:46:21;102817.88;;;4.44;63.56
41250;BME280;26984;59.928;30.306;2023-04-07T00:48:48;102817.03;;;4.55;63.31
41250;BME280;26984;59.928;30.306;2023-04-07T00:51:16;102821.16;;;4.48;63.74
41250;BME280;26984;59.928;30.306;2023-04-07T00:53:44;102817.03;;;4.55;63.57
41250;BME280;26984;59.928;30.306;2023-04-07T00:56:13;102807.56;;;4.51;63.70
41250;BME280;26984;59.928;30.306;2023-04-07T00:58:40;102814.34;;;4.55;63.82
41250;BME280;26984;59.928;30.306;2023-04-07T01:01:08;102812.56;;;4.55;63.55
41250;BME280;26984;59.928;30.306;2023-04-07T01:03:39;102813.41;;;4.56;63.08
41250;BME280;26984;59.928;30.306;2023-04-07T01:06:11;102810.75;;;4.56;63.27
41250;BME280;26984;59.928;30.306;2023-04-07T01:08:50;102814.50;;;4.53;63.46
41250;BME280;26984;59.928;30.306;2023-04-07T01:11:23;102810.38;;;4.49;63.44
41250;BME280;26984;59.928;30.306;2023-04-07T01:13:53;102813.66;;;4.53;63.51
41250;BME280;26984;59.928;30.306;2023-04-07T01:16:37;102819.97;;;4.52;62.98
41250;BME280;26984;59.928;30.306;2023-04-07T01:19:08;102812.56;;;4.55;63.38
41250;BME280;26984;59.928;30.306;2023-04-07T01:21:43;102805.50;;;4.54;63.25
41250;BME280;26984;59.928;30.306;2023-04-07T01:24:17;102814.25;;;4.56;63.21
41250;BME280;26984;59.928;30.306;2023-04-07T01:26:50;102814.13;;;4.58;63.76
41250;BME280;26984;59.928;30.306;2023-04-07T01:29:32;102813.88;;;4.61;63.48
41250;BME280;26984;59.928;30.306;2023-04-07T01:32:01;102805.38;;;4.67;63.84
41250;BME280;26984;59.928;30.306;2023-04-07T01:34:30;102813.84;;;4.72;63.59
41250;BME280;26984;59.928;30.306;2023-04-07T01:37:00;102810.22;;;4.73;63.54
41250;BME280;26984;59.928;30.306;2023-04-07T01:39:28;102814.69;;;4.73;64.02
41250;BME280;26984;59.928;30.306;2023-04-07T01:41:56;102811.53;;;4.79;63.12
41250;BME280;26984;59.928;30.306;2023-04-07T01:44:24;102811.78;;;4.76;62.73
41250;BME280;26984;59.928;30.306;2023-04-07T01:46:54;102805.00;;;4.72;62.39
41250;BME280;26984;59.928;30.306;2023-04-07T01:49:22;102805.00;;;4.72;62.68
41250;BME280;26984;59.928;30.306;2023-04-07T01:51:52;102810.16;;;4.96;61.63
41250;BME280;26984;59.928;30.306;2023-04-07T01:54:20;102811.16;;;4.84;61.83
41250;BME280;26984;59.928;30.306;2023-04-07T01:56:47;102814.16;;;4.90;62.02
41250;BME280;26984;59.928;30.306;2023-04-07T01:59:15;102811.97;;;4.95;62.40
41250;BME280;26984;59.928;30.306;2023-04-07T02:01:44;102814.16;;;4.90;62.57
41250;BME280;26984;59.928;30.306;2023-04-07T02:04:14;102818.81;;;4.88;62.21
41250;BME280;26984;59.928;30.306;2023-04-07T02:06:46;102815.16;;;4.89;61.39
41250;BME280;26984;59.928;30.306;2023-04-07T02:09:20;102816.84;;;4.90;61.84
41250;BME280;26984;59.928;30.306;2023-04-07T02:11:48;102807.72;;;4.93;61.57
41250;BME280;26984;59.928;30.306;2023-04-07T02:14:18;102802.53;;;4.91;61.53
41250;BME280;26984;59.928;30.306;2023-04-07T02:16:59;102806.19;;;4.79;61.61
41250;BME280;26984;59.928;30.306;2023-04-07T02:19:29;102804.13;;;4.83;62.26
41250;BME280;26984;59.928;30.306;2023-04-07T02:21:56;102803.53;;;4.79;61.96
41250;BME280;26984;59.928;30.306;2023-04-07T02:24:26;102811.38;;;4.92;61.99
41250;BME280;26984;59.928;30.306;2023-04-07T02:26:53;102808.38;;;4.85;61.99
41250;BME280;26984;59.928;30.306;2023-04-07T02:29:21;102813.31;;;4.90;62.46
41250;BME280;26984;59.928;30.306;2023-04-07T02:31:48;102814.56;;;4.86;61.66
41250;BME280;26984;59.928;30.306;2023-04-07T02:34:16;102816.25;;;4.87;62.12
41250;BME280;26984;59.928;30.306;2023-04-07T02:36:45;102813.47;;;4.88;61.85
41250;BME280;26984;59.928;30.306;2023-04-07T02:39:12;102819.06;;;4.85;61.57
41250;BME280;26984;59.928;30.306;2023-04-07T02:41:40;102816.75;;;4.69;62.70
41250;BME280;26984;59.928;30.306;2023-04-07T02:44:08;102818.47;;;4.70;62.24
41250;BME280;26984;59.928;30.306;2023-04-07T02:46:35;102820.56;;;4.67;62.13
41250;BME280;26984;59.928;30.306;2023-04-07T02:49:02;102818.50;;;4.59;62.38
41250;BME280;26984;59.928;30.306;2023-04-07T02:51:30;102813.16;;;4.48;62.67
41250;BME280;26984;59.928;30.306;2023-04-07T02:53:59;102818.75;;;4.33;63.59
41250;BME280;26984;59.928;30.306;2023-04-07T02:56:26;102811.59;;;4.23;63.22
41250;BME280;26984;59.928;30.306;2023-04-07T02:58:54;102815.72;;;4.16;63.26
41250;BME280;26984;59.928;30.306;2023-04-07T03:01:22;102816.09;;;4.11;64.62
41250;BME280;26984;59.928;30.306;2023-04-07T03:03:49;102820.44;;;4.12;64.33
41250;BME280;26984;59.928;30.306;2023-04-07T03:06:21;102823.84;;;4.03;64.40
41250;BME280;26984;59.928;30.306;2023-04-07T03:09:01;102818.84;;;3.98;65.34
41250;BME280;26984;59.928;30.306;2023-04-07T03:11:29;102815.56;;;3.95;65.84
41250;BME280;26984;59.928;30.306;2023-04-07T03:13:59;102822.88;;;4.04;65.38
41250;BME280;26984;59.928;30.306;2023-04-07T03:16:28;102816.44;;;3.95;65.66
41250;BME280;26984;59.928;30.306;2023-04-07T03:19:04;102815.94;;;3.90;65.71
41250;BME280;26984;59.928;30.306;2023-04-07T03:21:36;102813.88;;;3.94;66.23
41250;BME280;26984;59.928;30.306;2023-04-07T03:24:06;102821.88;;;3.94;65.91
41250;BME280;26984;59.928;30.306;2023-04-07T03:26:33;102815.94;;;3.90;66.28
41250;BME280;26984;59.928;30.306;2023-04-07T03:29:03;102815.72;;;3.93;66.74
41250;BME280;26984;59.928;30.306;2023-04-07T03:31:31;102815.56;;;3.95;66.22
41250;BME280;26984;59.928;30.306;2023-04-07T03:33:58;102825.16;;;3.97;66.23
41250;BME280;26984;59.928;30.306;2023-04-07T03:36:26;102818.00;;;3.98;66.83
41250;BME280;26984;59.928;30.306;2023-04-07T03:38:56;102818.63;;;4.01;66.77
41250;BME280;26984;59.928;30.306;2023-04-07T03:41:25;102817.28;;;3.96;66.42
41250;BME280;26984;59.928;30.306;2023-04-07T03:43:52;102815.72;;;3.93;66.31
41250;BME280;26984;59.928;30.306;2023-04-07T03:46:20;102827.34;;;4.03;67.10
41250;BME280;26984;59.928;30.306;2023-04-07T03:48:48;102822.75;;;4.05;66.76
41250;BME280;26984;59.928;30.306;2023-04-07T03:51:17;102823.00;;;4.14;66.48
41250;BME280;26984;59.928;30.306;2023-04-07T03:53:46;102829.44;;;4.22;66.55
41250;BME280;26984;59.928;30.306;2023-04-07T03:56:27;102822.16;;;4.24;65.97
41250;BME280;26984;59.928;30.306;2023-04-07T03:58:56;102824.59;;;4.27;66.10
41250;BME280;26984;59.928;30.306;2023-04-07T04:01:31;102830.63;;;4.29;65.65
41250;BME280;26984;59.928;30.306;2023-04-07T04:04:06;102831.00;;;4.36;65.71
41250;BME280;26984;59.928;30.306;2023-04-07T04:06:34;102824.69;;;4.37;65.15
41250;BME280;26984;59.928;30.306;2023-04-07T04:09:13;102827.25;;;4.39;65.18
41250;BME280;26984;59.928;30.306;2023-04-07T04:11:46;102815.38;;;4.31;64.65
41250;BME280;26984;59.928;30.306;2023-04-07T04:14:15;102838.63;;;4.41;64.73
41250;BME280;26984;59.928;30.306;2023-04-07T04:16:48;102832.44;;;4.40;65.20
41250;BME280;26984;59.928;30.306;2023-04-07T04:19:25;102840.59;;;4.50;65.62
41250;BME280;26984;59.928;30.306;2023-04-07T04:21:55;102830.13;;;4.58;64.84
41250;BME280;26984;59.928;30.306;2023-04-07T04:24:26;102829.88;;;4.72;64.39
41250;BME280;26984;59.928;30.306;2023-04-07T04:27:00;102834.94;;;4.87;64.13
41250;BME280;26984;59.928;30.306;2023-04-07T04:29:28;102844.16;;;4.94;63.47
41250;BME280;26984;59.928;30.306;2023-04-07T04:31:57;102847.38;;;5.09;63.42
41250;BME280;26984;59.928;30.306;2023-04-07T04:34:25;102843.56;;;5.22;63.07
41250;BME280;26984;59.928;30.306;2023-04-07T04:36:56;102834.66;;;5.33;62.91
41250;BME280;26984;59.928;30.306;2023-04-07T04:39:24;102833.91;;;5.42;61.68
41250;BME280;26984;59.928;30.306;2023-04-07T04:41:51;102831.56;;;5.49;61.57
41250;BME280;26984;59.928;30.306;2023-04-07T04:44:24;102830.91;;;5.57;61.40
41250;BME280;26984;59.928;30.306;2023-04-07T04:46:51;102836.59;;;5.63;60.94
41250;BME280;26984;59.928;30.306;2023-04-07T04:49:19;102843.72;;;5.74;61.12
41250;BME280;26984;59.928;30.306;2023-04-07T04:51:49;102836.97;;;5.80;60.57
41250;BME280;26984;59.928;30.306;2023-04-07T04:54:17;102837.97;;;5.99;59.87
41250;BME280;26984;59.928;30.306;2023-04-07T04:56:45;102833.06;;;6.05;60.20
41250;BME280;26984;59.928;30.306;2023-04-07T04:59:13;102830.97;;;6.08;58.93
41250;BME280;26984;59.928;30.306;2023-04-07T05:02:08;102840.63;;;6.20;59.21
41250;BME280;26984;59.928;30.306;2023-04-07T05:04:36;102837.16;;;6.30;58.71
41250;BME280;26984;59.928;30.306;2023-04-07T05:07:17;102833.38;;;6.42;59.34
41250;BME280;26984;59.928;30.306;2023-04-07T05:09:45;102834.28;;;6.52;58.82
41250;BME280;26984;59.928;30.306;2023-04-07T05:12:15;102836.00;;;6.63;58.46
41250;BME280;26984;59.928;30.306;2023-04-07T05:14:47;102837.00;;;6.71;56.60
41250;BME280;26984;59.928;30.306;2023-04-07T05:17:16;102836.03;;;6.72;56.85
41250;BME280;26984;59.928;30.306;2023-04-07T05:19:44;102837.19;;;6.80;57.63
41250;BME280;26984;59.928;30.306;2023-04-07T05:22:20;102834.78;;;6.86;56.45
41250;BME280;26984;59.928;30.306;2023-04-07T05:24:50;102838.75;;;6.92;55.79
41250;BME280;26984;59.928;30.306;2023-04-07T05:27:17;102835.66;;;6.87;55.97
41250;BME280;26984;59.928;30.306;2023-04-07T05:29:49;102825.19;;;6.84;56.19
41250;BME280;26984;59.928;30.306;2023-04-07T05:32:30;102835.91;;;6.84;56.47
41250;BME280;26984;59.928;30.306;2023-04-07T05:35:02;102839.47;;;6.94;55.49
41250;BME280;26984;59.928;30.306;2023-04-07T05:37:34;102832.13;;;6.96;55.50
41250;BME280;26984;59.928;30.306;2023-04-07T05:40:04;102836.78;;;7.04;54.82
41250;BME280;26984;59.928;30.306;2023-04-07T05:42:32;102835.63;;;6.96;54.84
41250;BME280;26984;59.928;30.306;2023-04-07T05:45:00;102839.03;;;6.99;55.45
41250;BME280;26984;59.928;30.306;2023-04-07T05:47:49;102838.34;;;7.06;55.44
41250;BME280;26984;59.928;30.306;2023-04-07T05:50:43;102836.78;;;7.13;55.08
41250;BME280;26984;59.928;30.306;2023-04-07T05:53:43;102825.38;;;7.21;54.53
41250;BME280;26984;59.928;30.306;2023-04-07T05:56:16;102827.22;;;7.20;54.64
41250;BME280;26984;59.928;30.306;2023-04-07T05:58:46;102821.13;;;7.18;54.53
41250;BME280;26984;59.928;30.306;2023-04-07T06:01:18;102825.50;;;7.29;54.05
41250;BME280;26984;59.928;30.306;2023-04-07T06:03:48;102832.03;;;7.36;54.59
41250;BME280;26984;59.928;30.306;2023-04-07T06:06:21;102830.03;;;7.38;54.89
41250;BME280;26984;59.928;30.306;2023-04-07T06:08:49;102831.72;;;7.49;53.71
41250;BME280;26984;59.928;30.306;2023-04-07T06:11:17;102822.13;;;7.47;54.58
41250;BME280;26984;59.928;30.306;2023-04-07T06:13:45;102826.34;;;7.59;54.70
41250;BME280;26984;59.928;30.306;2023-04-07T06:16:13;102835.25;;;7.59;53.73
41250;BME280;26984;59.928;30.306;2023-04-07T06:18:40;102828.59;;;7.73;54.13
41250;BME280;26984;59.928;30.306;2023-04-07T06:21:09;102835.06;;;7.80;54.02
41250;BME280;26984;59.928;30.306;2023-04-07T06:23:37;102841.56;;;7.87;53.88
41250;BME280;26984;59.928;30.306;2023-04-07T06:26:07;102829.94;;;7.97;53.37
41250;BME280;26984;59.928;30.306;2023-04-07T06:28:36;102828.81;;;7.99;53.34
41250;BME280;26984;59.928;30.306;2023-04-07T06:31:06;102831.31;;;8.10;52.61
41250;BME280;26984;59.928;30.306;2023-04-07T06:33:35;102827.88;;;8.18;51.29
41250;BME280;26984;59.928;30.306;2023-04-07T06:36:03;102829.88;;;8.16;51.40
41250;BME280;26984;59.928;30.306;2023-04-07T06:38:32;102836.28;;;8.05;52.14
41250;BME280;26984;59.928;30.306;2023-04-07T06:41:01;102835.25;;;8.16;51.83
41250;BME280;26984;59.928;30.306;2023-04-07T06:43:29;102832.28;;;8.19;51.96
41250;BME280;26984;59.928;30.306;2023-04-07T06:46:01;102833.69;;;8.23;52.60
41250;BME280;26984;59.928;30.306;2023-04-07T06:48:29;102840.53;;;8.35;51.98
41250;BME280;26984;59.928;30.306;2023-04-07T06:50:56;102837.16;;;8.43;51.23
41250;BME280;26984;59.928;30.306;2023-04-07T06:53:24;102831.34;;;8.48;51.10
41250;BME280;26984;59.928;30.306;2023-04-07T06:56:02;102828.47;;;8.59;51.34
41250;BME280;26984;59.928;30.306;2023-04-07T06:58:31;102839.16;;;8.69;51.29
41250;BME280;26984;59.928;30.306;2023-04-07T07:01:19;102836.41;;;8.78;50.00
41250;BME280;26984;59.928;30.306;2023-04-07T07:04:10;102837.94;;;8.81;49.52
41250;BME280;26984;59.928;30.306;2023-04-07T07:06:51;102837.94;;;8.81;50.13
41250;BME280;26984;59.928;30.306;2023-04-07T07:09:33;102832.88;;;8.78;50.05
41250;BME280;26984;59.928;30.306;2023-04-07T07:12:05;102838.72;;;8.91;49.89
41250;BME280;26984;59.928;30.306;2023-04-07T07:14:39;102839.91;;;9.06;49.72
41250;BME280;26984;59.928;30.306;2023-04-07T07:17:06;102837.13;;;9.16;49.11
41250;BME280;26984;59.928;30.306;2023-04-07T07:19:34;102842.44;;;9.26;48.80
41250;BME280;26984;59.928;30.306;2023-04-07T07:22:02;102841.59;;;9.43;49.15
41250;BME280;26984;59.928;30.306;2023-04-07T07:24:30;102834.19;;;9.63;47.89
41250;BME280;26984;59.928;30.306;2023-04-07T07:26:59;102836.25;;;9.69;48.57
41250;BME280;26984;59.928;30.306;2023-04-07T07:29:28;102833.84;;;9.84;48.49
41250;BME280;26984;59.928;30.306;2023-04-07T07:31:56;102831.19;;;9.92;47.20
41250;BME280;26984;59.928;30.306;2023-04-07T07:34:24;102831.06;;;9.94;48.16
41250;BME280;26984;59.928;30.306;2023-04-07T07:36:51;102830.78;;;10.05;46.97
41250;BME280;26984;59.928;30.306;2023-04-07T07:39:19;102835.75;;;10.18;48.07
41250;BME280;26984;59.928;30.306;2023-04-07T07:41:47;102834.78;;;10.27;46.82
41250;BME280;26984;59.928;30.306;2023-04-07T07:44:15;102825.31;;;10.23;46.11
41250;BME280;26984;59.928;30.306;2023-04-07T07:46:46;102824.09;;;10.17;45.31
41250;BME280;26984;59.928;30.306;2023-04-07T07:49:13;102825.63;;;10.20;45.88
41250;BME280;26984;59.928;30.306;2023-04-07T07:51:41;102829.41;;;10.27;46.19
41250;BME280;26984;59.928;30.306;2023-04-07T07:54:11;102826.28;;;10.40;45.66
41250;BME280;26984;59.928;30.306;2023-04-07T07:56:38;102827.53;;;10.53;45.67
41250;BME280;26984;59.928;30.306;2023-04-07T07:59:06;102826.53;;;10.63;44.80
41250;BME280;26984;59.928;30.306;2023-04-07T08:01:33;102827.09;;;10.74;44.97
41250;BME280;26984;59.928;30.306;2023-04-07T08:04:02;102823.75;;;10.89;44.81
41250;BME280;26984;59.928;30.306;2023-04-07T08:06:30;102823.91;;;10.95;44.62
41250;BME280;26984;59.928;30.306;2023-04-07T08:08:57;102816.06;;;11.10;44.26
41250;BME280;26984;59.928;30.306;2023-04-07T08:11:25;102819.91;;;11.24;44.15
41250;BME280;26984;59.928;30.306;2023-04-07T08:13:53;102814.69;;;11.31;43.32
41250;BME280;26984;59.928;30.306;2023-04-07T08:16:20;102816.88;;;11.27;43.43
41250;BME280;26984;59.928;30.306;2023-04-07T08:18:48;102811.00;;;11.40;43.07
41250;BME280;26984;59.928;30.306;2023-04-07T08:21:18;102810.66;;;11.35;41.93
41250;BME280;26984;59.928;30.306;2023-04-07T08:23:46;102817.91;;;11.26;42.18
41250;BME280;26984;59.928;30.306;2023-04-07T08:26:13;102811.81;;;11.24;41.84
41250;BME280;26984;59.928;30.306;2023-04-07T08:28:41;102811.16;;;11.22;42.80
41250;BME280;26984;59.928;30.306;2023-04-07T08:31:08;102811.00;;;11.32;42.66
41250;BME280;26984;59.928;30.306;2023-04-07T08:33:36;102809.47;;;11.37;41.58
41250;BME280;26984;59.928;30.306;2023-04-07T08:36:04;102814.88;;;11.29;40.52
41250;BME280;26984;59.928;30.306;2023-04-07T08:38:33;102807.63;;;11.21;41.72
41250;BME280;26984;59.928;30.306;2023-04-07T08:41:02;102816.19;;;11.17;40.97
41250;BME280;26984;59.928;30.306;2023-04-07T08:43:30;102808.63;;;11.12;41.49
41250;BME280;26984;59.928;30.306;2023-04-07T08:45:59;102800.84;;;11.09;41.91
41250;BME280;26984;59.928;30.306;2023-04-07T08:48:29;102800.00;;;11.17;42.26
41250;BME280;26984;59.928;30.306;2023-04-07T08:50:59;102801.38;;;11.29;42.32
41250;BME280;26984;59.928;30.306;2023-04-07T08:53:34;102801.38;;;11.29;40.34
41250;BME280;26984;59.928;30.306;2023-04-07T08:56:04;102803.41;;;11.35;41.42
41250;BME280;26984;59.928;30.306;2023-04-07T08:58:32;102791.59;;;11.44;41.11
41250;BME280;26984;59.928;30.306;2023-04-07T09:00:59;102791.94;;;11.58;40.70
41250;BME280;26984;59.928;30.306;2023-04-07T09:03:28;102793.78;;;11.57;40.70
41250;BME280;26984;59.928;30.306;2023-04-07T09:05:57;102792.44;;;11.61;40.47
41250;BME280;26984;59.928;30.306;2023-04-07T09:08:26;102794.97;;;11.55;39.80
41250;BME280;26984;59.928;30.306;2023-04-07T09:10:53;102799.16;;;11.65;40.81
41250;BME280;26984;59.928;30.306;2023-04-07T09:13:23;102794.47;;;11.67;39.94
41250;BME280;26984;59.928;30.306;2023-04-07T09:15:51;102788.72;;;11.62;40.13
41250;BME280;26984;59.928;30.306;2023-04-07T09:18:18;102784.84;;;11.65;40.34
41250;BME280;26984;59.928;30.306;2023-04-07T09:20:54;102790.06;;;11.66;39.63
41250;BME280;26984;59.928;30.306;2023-04-07T09:23:29;102785.50;;;11.59;39.68
41250;BME280;26984;59.928;30.306;2023-04-07T09:25:56;102787.72;;;11.55;39.74
41250;BME280;26984;59.928;30.306;2023-04-07T09:28:38;102777.78;;;11.39;39.82
41250;BME280;26984;59.928;30.306;2023-04-07T09:31:06;102782.47;;;11.45;40.57
41250;BME280;26984;59.928;30.306;2023-04-07T09:33:34;102784.00;;;11.64;40.06
41250;BME280;26984;59.928;30.306;2023-04-07T09:36:02;102775.34;;;11.77;40.17
41250;BME280;26984;59.928;30.306;2023-04-07T09:38:33;102781.63;;;11.86;39.28
41250;BME280;26984;59.928;30.306;2023-04-07T09:41:04;102775.50;;;12.00;39.85
41250;BME280;26984;59.928;30.306;2023-04-07T09:43:37;102770.72;;;12.18;38.93
41250;BME280;26984;59.928;30.306;2023-04-07T09:46:10;102774.06;;;12.29;38.43
41250;BME280;26984;59.928;30.306;2023-04-07T09:48:37;102771.44;;;12.43;38.59
41250;BME280;26984;59.928;30.306;2023-04-07T09:51:06;102765.00;;;12.44;38.62
41250;BME280;26984;59.928;30.306;2023-04-07T09:53:41;102766.97;;;12.59;38.46
41250;BME280;26984;59.928;30.306;2023-04-07T09:56:09;102763.56;;;12.65;38.38
41250;BME280;26984;59.928;30.306;2023-04-07T09:58:38;102767.16;;;12.80;37.50
41250;BME280;26984;59.928;30.306;2023-04-07T10:01:06;102764.53;;;12.72;38.11
41250;BME280;26984;59.928;30.306;2023-04-07T10:03:34;102769.03;;;12.80;38.12
41250;BME280;26984;59.928;30.306;2023-04-07T10:06:02;102766.47;;;12.86;37.87
41250;BME280;26984;59.928;30.306;2023-04-07T10:08:31;102766.81;;;12.83;37.28
41250;BME280;26984;59.928;30.306;2023-04-07T10:11:00;102759.44;;;12.77;38.27
41250;BME280;26984;59.928;30.306;2023-04-07T10:13:28;102753.78;;;12.87;37.50
41250;BME280;26984;59.928;30.306;2023-04-07T10:15:58;102752.28;;;12.84;37.25
41250;BME280;26984;59.928;30.306;2023-04-07T10:18:27;102751.44;;;12.84;37.26
41250;BME280;26984;59.928;30.306;2023-04-07T10:20:56;102756.66;;;12.85;37.65
41250;BME280;26984;59.928;30.306;2023-04-07T10:23:29;102752.50;;;12.98;37.02
41250;BME280;26984;59.928;30.306;2023-04-07T10:25:58;102752.03;;;12.94;37.54
41250;BME280;26984;59.928;30.306;2023-04-07T10:28:27;102749.88;;;12.89;37.42
41250;BME280;26984;59.928;30.306;2023-04-07T10:30:58;102743.50;;;12.82;37.67
41250;BME280;26984;59.928;30.306;2023-04-07T10:33:45;102749.03;;;12.89;37.09
41250;BME280;26984;59.928;30.306;2023-04-07T10:36:13;102749.41;;;12.86;37.11
41250;BME280;26984;59.928;30.306;2023-04-07T10:38:41;102747.25;;;12.81;37.46
41250;BME280;26984;59.928;30.306;2023-04-07T10:43:54;102738.94;;;12.83;37.52
41250;BME280;26984;59.928;30.306;2023-04-07T10:46:23;102739.59;;;12.85;37.55
41250;BME280;26984;59.928;30.306;2023-04-07T10:49:06;102733.09;;;12.71;37.91
41250;BME280;26984;59.928;30.306;2023-04-07T10:51:34;102735.63;;;12.73;38.18
41250;BME280;26984;59.928;30.306;2023-04-07T10:59:32;102719.09;;;12.67;37.68
41250;BME280;26984;59.928;30.306;2023-04-07T11:04:48;102727.66;;;12.48;38.15
41250;BME280;26984;59.928;30.306;2023-04-07T11:07:15;102725.34;;;12.37;38.54
41250;BME280;26984;59.928;30.306;2023-04-07T11:09:44;102724.66;;;12.43;38.72
41250;BME280;26984;59.928;30.306;2023-04-07T11:12:21;102717.56;;;12.42;38.22
41250;BME280;26984;59.928;30.306;2023-04-07T11:14:49;102721.31;;;12.33;38.46
41250;BME280;26984;59.928;30.306;2023-04-07T11:17:16;102713.22;;;12.33;38.72
41250;BME280;26984;59.928;30.306;2023-04-07T11:19:52;102718.09;;;12.37;38.71
41250;BME280;26984;59.928;30.306;2023-04-07T11:22:19;102710.31;;;12.34;38.21
41250;BME280;26984;59.928;30.306;2023-04-07T11:24:47;102711.41;;;12.25;38.62
41250;BME280;26984;59.928;30.306;2023-04-07T11:27:15;102715.13;;;12.24;38.88
41250;BME280;26984;59.928;30.306;2023-04-07T11:29:42;102711.19;;;12.35;38.10
41250;BME280;26984;59.928;30.306;2023-04-07T11:32:10;102711.00;;;12.36;38.54
41250;BME280;26984;59.928;30.306;2023-04-07T11:34:39;102714.25;;;12.32;39.00
41250;BME280;26984;59.928;30.306;2023-04-07T11:37:20;102710.66;;;12.39;38.89
41250;BME280;26984;59.928;30.306;2023-04-07T11:39:50;102710.72;;;12.54;38.27
41250;BME280;26984;59.928;30.306;2023-04-07T11:42:30;102708.34;;;12.59;38.07
41250;BME280;26984;59.928;30.306;2023-04-07T11:44:57;102702.75;;;12.61;37.95
41250;BME280;26984;59.928;30.306;2023-04-07T11:47:32;102701.34;;;12.65;37.55
41250;BME280;26984;59.928;30.306;2023-04-07T11:50:00;102694.81;;;12.59;37.59
41250;BME280;26984;59.928;30.306;2023-04-07T11:52:29;102697.69;;;12.58;38.26
41250;BME280;26984;59.928;30.306;2023-04-07T11:55:06;102696.50;;;12.60;37.30
41250;BME280;26984;59.928;30.306;2023-04-07T11:57:42;102690.97;;;12.54;37.97
41250;BME280;26984;59.928;30.306;2023-04-07T12:00:10;102686.88;;;12.58;37.84
41250;BME280;26984;59.928;30.306;2023-04-07T12:02:39;102685.50;;;12.62;37.64
41250;BME280;26984;59.928;30.306;2023-04-07T12:05:07;102688.19;;;12.62;37.68
41250;BME280;26984;59.928;30.306;2023-04-07T12:07:37;102679.72;;;12.65;36.88
41250;BME280;26984;59.928;30.306;2023-04-07T12:10:17;102674.03;;;12.60;37.68
41250;BME280;26984;59.928;30.306;2023-04-07T12:12:46;102681.78;;;12.63;37.79
41250;BME280;26984;59.928;30.306;2023-04-07T12:15:13;102669.88;;;12.72;37.40
41250;BME280;26984;59.928;30.306;2023-04-07T12:17:43;102665.91;;;12.83;37.34
41250;BME280;26984;59.928;30.306;2023-04-07T12:20:11;102667.03;;;12.88;37.56
41250;BME280;26984;59.928;30.306;2023-04-07T12:22:40;102668.00;;;12.96;37.19
41250;BME280;26984;59.928;30.306;2023-04-07T12:25:08;102662.88;;;13.01;36.91
41250;BME280;26984;59.928;30.306;2023-04-07T12:27:38;102670.72;;;12.96;37.07
41250;BME280;26984;59.928;30.306;2023-04-07T12:30:06;102673.69;;;13.01;37.06
41250;BME280;26984;59.928;30.306;2023-04-07T12:32:34;102667.16;;;12.95;37.07
41250;BME280;26984;59.928;30.306;2023-04-07T12:35:02;102670.03;;;12.93;37.39
41250;BME280;26984;59.928;30.306;2023-04-07T12:37:30;102658.97;;;13.03;36.95
41250;BME280;26984;59.928;30.306;2023-04-07T12:39:59;102668.63;;;12.98;36.60
41250;BME280;26984;59.928;30.306;2023-04-07T12:42:26;102657.19;;;12.96;37.09
41250;BME280;26984;59.928;30.306;2023-04-07T12:44:54;102664.94;;;12.99;36.92
41250;BME280;26984;59.928;30.306;2023-04-07T12:47:22;102661.91;;;12.93;36.75
41250;BME280;26984;59.928;30.306;2023-04-07T12:49:49;102660.03;;;12.94;37.27
41250;BME280;26984;59.928;30.306;2023-04-07T12:52:17;102665.09;;;12.97;36.64
41250;BME280;26984;59.928;30.306;2023-04-07T12:54:44;102657.34;;;12.94;36.84
41250;BME280;26984;59.928;30.306;2023-04-07T12:57:20;102655.59;;;13.01;36.72
41250;BME280;26984;59.928;30.306;2023-04-07T12:59:48;102653.00;;;13.08;36.69
41250;BME280;26984;59.928;30.306;2023-04-07T13:02:15;102642.38;;;13.06;36.98
41250;BME280;26984;59.928;30.306;2023-04-07T13:04:43;102649.66;;;13.06;37.23
41250;BME280;26984;59.928;30.306;2023-04-07T13:07:12;102645.91;;;13.07;37.46
41250;BME280;26984;59.928;30.306;2023-04-07T13:09:40;102642.38;;;13.06;36.90
41250;BME280;26984;59.928;30.306;2023-04-07T13:12:08;102641.41;;;12.99;37.43